Time;durP1;ratioP1;P1;durP2;ratioP2;P2;SDS_P1;SDS_P2;PMS_P1;PMS_P2;Temp;Humidity;BMP_temperature;BMP_pressure;BME280_temperature;BME280_humidity;BME280_pressure;Samples;Min_cycle;Max_cycle;Signal;HPM_P1;HPM_P2
2021/12/25 00:00:07;;;;;;;6.00;1.80;;;0.50;97.30;;;;;;4997980;28;20954;-90
2021/12/25 00:02:35;;;;;;;1.37;1.30;;;0.50;97.30;;;;;;4997020;28;20462;-91
2021/12/25 00:05:05;;;;;;;1.63;1.53;;;0.40;97.30;;;;;;4996988;28;20995;-89
2021/12/25 00:07:31;;;;;;;1.87;1.30;;;0.40;97.30;;;;;;4997275;28;20480;-90
2021/12/25 00:09:57;;;;;;;1.50;1.40;;;0.40;97.30;;;;;;4997696;28;20420;-89
2021/12/25 00:12:27;;;;;;;3.03;1.47;;;0.30;97.30;;;;;;4997596;28;20437;-91
2021/12/25 00:14:56;;;;;;;1.40;1.30;;;0.30;97.30;;;;;;4998027;28;20409;-91
2021/12/25 00:17:29;;;;;;;1.43;1.10;;;0.20;97.30;;;;;;4998471;28;20940;-91
2021/12/25 00:19:57;;;;;;;1.20;1.10;;;0.10;97.30;;;;;;5030610;28;20563;-90
2021/12/25 00:22:35;;;;;;;1.57;1.27;;;0.00;97.30;;;;;;4998722;28;20469;-90
2021/12/25 00:25:03;;;;;;;1.33;1.30;;;0.00;97.30;;;;;;4997695;28;20474;-91
2021/12/25 00:27:50;;;;;;;1.50;1.40;;;0.00;97.30;;;;;;4997797;28;20479;-91
2021/12/25 00:30:26;;;;;;;2.10;1.17;;;0.00;97.30;;;;;;5000969;28;20415;-91
2021/12/25 00:32:56;;;;;;;1.87;1.20;;;0.00;97.30;;;;;;4999305;28;20499;-91
2021/12/25 00:35:29;;;;;;;1.27;1.17;;;0.00;97.30;;;;;;4999529;28;20421;-92
2021/12/25 00:37:55;;;;;;;2.00;1.57;;;-0.10;97.30;;;;;;4999727;28;20440;-92
2021/12/25 00:40:23;;;;;;;1.67;1.20;;;-0.10;97.30;;;;;;4999888;28;20444;-91
2021/12/25 00:42:49;;;;;;;1.53;1.30;;;-0.10;97.30;;;;;;4999429;28;20234;-90
2021/12/25 00:45:17;;;;;;;1.53;1.50;;;-0.10;97.30;;;;;;4999064;28;20460;-92
2021/12/25 00:47:48;;;;;;;1.63;1.60;;;-0.10;97.30;;;;;;4997147;28;20708;-93
2021/12/25 00:50:17;;;;;;;2.67;1.60;;;-0.10;97.30;;;;;;5001403;28;20431;-90
2021/12/25 00:52:45;;;;;;;1.53;1.40;;;-0.10;97.30;;;;;;5000784;28;20844;-90
2021/12/25 00:55:34;;;;;;;3.33;1.40;;;-0.10;97.30;;;;;;4998946;28;20420;-92
2021/12/25 00:58:08;;;;;;;1.40;1.30;;;-0.10;97.30;;;;;;4999022;28;20409;-92
2021/12/25 01:00:37;;;;;;;1.57;1.20;;;-0.20;97.30;;;;;;4999450;28;20440;-92
2021/12/25 01:03:05;;;;;;;1.10;1.00;;;-0.10;97.30;;;;;;4999127;28;20433;-91
2021/12/25 01:05:38;;;;;;;1.53;1.17;;;-0.20;97.30;;;;;;4998071;28;20413;-92
2021/12/25 01:08:07;;;;;;;2.17;1.40;;;-0.20;97.30;;;;;;5000216;28;20457;-92
2021/12/25 01:10:36;;;;;;;1.53;1.40;;;-0.20;97.30;;;;;;4998246;28;20421;-92
2021/12/25 01:18:59;;;;;;;1.67;1.40;;;-0.30;97.30;;;;;;4980194;28;20416;-89
2021/12/25 01:35:46;;;;;;;1.20;1.10;;;-1.20;97.30;;;;;;4994734;28;20453;-90
2021/12/25 01:38:03;;;;;;;1.87;1.60;;;-1.30;97.30;;;;;;5037363;28;20430;-90
2021/12/25 01:48:42;;;;;;;1.07;0.97;;;-1.60;97.30;;;;;;5044966;28;20477;-91
2021/12/25 01:51:08;;;;;;;2.10;1.10;;;-1.70;97.30;;;;;;5021759;28;20523;-92
2021/12/25 01:53:36;;;;;;;1.33;1.17;;;-1.70;97.30;;;;;;5024562;28;20404;-92
2021/12/25 01:56:07;;;;;;;2.50;1.40;;;-1.80;97.30;;;;;;5025963;28;20455;-91
2021/12/25 01:58:36;;;;;;;1.10;1.00;;;-1.80;97.30;;;;;;5010922;28;20418;-92
2021/12/25 02:01:07;;;;;;;1.10;1.00;;;-1.90;97.30;;;;;;5028079;28;20426;-92
2021/12/25 02:03:37;;;;;;;1.27;1.10;;;-2.00;97.30;;;;;;5029164;28;20609;-91
2021/12/25 02:06:27;;;;;;;1.23;1.13;;;-2.00;97.30;;;;;;5027837;28;20433;-90
2021/12/25 02:08:56;;;;;;;1.23;1.20;;;-2.10;97.30;;;;;;5029780;28;20550;-92
2021/12/25 02:11:24;;;;;;;1.20;1.10;;;-2.10;97.30;;;;;;5012742;28;20553;-91
2021/12/25 02:13:57;;;;;;;1.13;1.03;;;-2.10;97.30;;;;;;5028307;28;20531;-92
2021/12/25 02:17:47;;;;;;;1.23;1.13;;;-2.10;97.30;;;;;;5027745;28;20431;-91
2021/12/25 02:19:44;;;;;;;1.23;1.13;;;-2.10;97.30;;;;;;5020685;28;20433;-92
2021/12/25 02:22:19;;;;;;;1.63;1.53;;;-2.20;97.30;;;;;;5026737;28;20435;-91
2021/12/25 02:24:47;;;;;;;1.20;1.10;;;-2.20;97.30;;;;;;5045759;28;20425;-91
2021/12/25 02:27:15;;;;;;;1.20;1.10;;;-2.20;97.30;;;;;;5040633;28;20430;-93
2021/12/25 02:29:46;;;;;;;1.43;1.33;;;-2.20;97.30;;;;;;5028162;28;20501;-91
2021/12/25 02:32:17;;;;;;;1.13;1.10;;;-2.20;97.30;;;;;;5041818;28;20450;-90
2021/12/25 02:34:46;;;;;;;1.27;1.10;;;-2.20;97.30;;;;;;5046092;28;20402;-92
2021/12/25 02:37:19;;;;;;;1.37;1.30;;;-2.10;97.30;;;;;;5046696;28;20777;-91
2021/12/25 02:39:45;;;;;;;1.40;1.30;;;-2.20;97.30;;;;;;5046752;28;20811;-89
2021/12/25 02:42:18;;;;;;;1.20;1.10;;;-2.20;97.30;;;;;;5044959;28;20475;-91
2021/12/25 02:44:46;;;;;;;1.10;1.00;;;-2.30;97.30;;;;;;5044059;28;20476;-91
2021/12/25 02:47:19;;;;;;;1.20;1.10;;;-2.30;97.30;;;;;;5048484;28;20411;-90
2021/12/25 02:49:54;;;;;;;1.40;1.30;;;-2.30;97.30;;;;;;5048397;28;20450;-91
2021/12/25 02:52:19;;;;;;;1.30;1.20;;;-2.30;97.30;;;;;;5046960;28;20434;-91
2021/12/25 02:54:47;;;;;;;1.30;1.27;;;-2.30;97.30;;;;;;5047171;28;20802;-92
2021/12/25 02:57:16;;;;;;;2.17;1.30;;;-2.30;97.30;;;;;;5046124;28;20263;-92
2021/12/25 02:59:49;;;;;;;1.30;1.20;;;-2.30;97.30;;;;;;5046407;28;20513;-92
2021/12/25 03:02:16;;;;;;;1.30;1.20;;;-2.30;97.30;;;;;;5044474;28;20442;-92
2021/12/25 03:04:48;;;;;;;1.37;1.27;;;-2.40;97.30;;;;;;5045169;28;20422;-91
2021/12/25 03:07:16;;;;;;;1.40;1.30;;;-2.40;97.30;;;;;;5062165;28;20406;-92
2021/12/25 03:09:47;;;;;;;1.20;1.10;;;-2.40;97.30;;;;;;5045064;28;20466;-91
2021/12/25 03:12:46;;;;;;;1.27;1.20;;;-2.40;97.30;;;;;;5042637;28;20435;-91
2021/12/25 03:15:47;;;;;;;1.60;1.50;;;-2.40;97.30;;;;;;5041753;28;20415;-90
2021/12/25 03:18:18;;;;;;;1.40;1.30;;;-2.40;97.30;;;;;;5029544;28;20422;-92
2021/12/25 03:21:09;;;;;;;3.40;1.63;;;-2.40;97.30;;;;;;5046487;28;20427;-92
2021/12/25 03:23:38;;;;;;;1.10;1.00;;;-2.40;97.30;;;;;;5032226;28;20431;-91
2021/12/25 03:26:17;;;;;;;1.27;1.17;;;-2.40;97.30;;;;;;5042865;28;20426;-91
2021/12/25 03:28:52;;;;;;;2.13;1.27;;;-2.40;97.30;;;;;;5034772;28;20504;-92
2021/12/25 03:31:21;;;;;;;1.50;1.40;;;-2.50;97.30;;;;;;5038983;28;20446;-92
2021/12/25 03:33:59;;;;;;;1.27;1.17;;;-2.50;97.30;;;;;;5038640;28;20780;-91
2021/12/25 03:36:27;;;;;;;1.30;1.20;;;-2.50;97.30;;;;;;5037886;28;20490;-92
2021/12/25 03:39:18;;;;;;;3.07;1.47;;;-2.50;97.30;;;;;;5037981;28;20411;-90
2021/12/25 03:41:48;;;;;;;1.20;1.10;;;-2.60;97.30;;;;;;5029008;28;20447;-92
2021/12/25 03:44:16;;;;;;;1.30;1.20;;;-2.50;97.30;;;;;;5036361;28;20415;-92
2021/12/25 03:47:21;;;;;;;1.30;1.20;;;-2.60;97.30;;;;;;5036537;28;20423;-91
2021/12/25 03:58:05;;;;;;;1.03;1.00;;;-2.60;97.30;;;;;;5036238;28;20461;-92
2021/12/25 04:00:37;;;;;;;1.10;1.00;;;-2.70;97.30;;;;;;5034756;28;20418;-91
2021/12/25 04:03:09;;;;;;;1.00;1.00;;;-2.70;97.30;;;;;;5018967;28;20439;-92
2021/12/25 04:05:40;;;;;;;2.60;1.10;;;-2.70;97.30;;;;;;5034573;28;20513;-92
2021/12/25 04:08:07;;;;;;;1.00;1.00;;;-2.70;97.30;;;;;;5034555;28;20463;-93
2021/12/25 04:10:37;;;;;;;1.10;1.00;;;-2.70;97.30;;;;;;5034678;28;20418;-91
2021/12/25 04:13:05;;;;;;;1.03;1.00;;;-2.70;97.30;;;;;;5034035;28;20439;-91
2021/12/25 04:15:32;;;;;;;1.10;1.00;;;-2.70;97.30;;;;;;5033952;28;20567;-92
2021/12/25 04:17:57;;;;;;;1.67;1.40;;;-2.70;97.30;;;;;;5034116;28;20419;-92
2021/12/25 04:20:23;;;;;;;1.80;1.10;;;-2.70;97.30;;;;;;5034017;28;21059;-91
2021/12/25 04:23:00;;;;;;;1.13;1.03;;;-2.70;97.30;;;;;;5033056;28;20192;-92
2021/12/25 04:25:29;;;;;;;2.87;1.20;;;-2.70;97.30;;;;;;5034056;28;20190;-91
2021/12/25 04:28:00;;;;;;;1.20;1.10;;;-2.70;97.30;;;;;;5019149;28;20537;-90
2021/12/25 04:30:36;;;;;;;1.37;1.10;;;-2.60;97.30;;;;;;5027696;28;20450;-92
2021/12/25 05:03:04;;;;;;;1.53;1.10;;;-2.70;97.30;;;;;;5022814;28;20483;-92
2021/12/25 05:05:32;;;;;;;1.10;1.10;;;-2.80;97.30;;;;;;5011823;28;20431;-92
2021/12/25 05:07:58;;;;;;;1.57;1.50;;;-2.80;97.30;;;;;;5011816;28;20844;-92
2021/12/25 05:10:23;;;;;;;2.70;1.20;;;-2.80;97.30;;;;;;5011727;28;20416;-92
2021/12/25 05:12:49;;;;;;;0.93;0.90;;;-2.80;97.30;;;;;;5011741;28;20200;-92
2021/12/25 05:15:17;;;;;;;2.07;1.30;;;-2.80;97.30;;;;;;5012097;28;20412;-92
2021/12/25 05:17:45;;;;;;;2.30;1.50;;;-2.80;97.30;;;;;;5011662;28;20268;-92
2021/12/25 05:20:11;;;;;;;2.00;1.30;;;-2.80;97.30;;;;;;5011808;28;20470;-92
2021/12/25 05:22:37;;;;;;;1.30;1.20;;;-2.80;97.30;;;;;;5012979;28;20470;-91
2021/12/25 05:25:06;;;;;;;1.20;1.10;;;-2.80;97.30;;;;;;5012724;28;20420;-91
2021/12/25 05:27:31;;;;;;;1.67;1.30;;;-2.80;97.30;;;;;;5016015;28;20165;-91
2021/12/25 05:29:57;;;;;;;1.13;1.03;;;-2.80;97.30;;;;;;5016837;28;20463;-91
2021/12/25 05:32:22;;;;;;;1.37;1.27;;;-2.80;97.30;;;;;;5016082;28;20192;-91
2021/12/25 05:34:48;;;;;;;5.67;1.43;;;-2.80;97.30;;;;;;5019215;28;20172;-90
2021/12/25 05:37:14;;;;;;;1.73;1.43;;;-2.80;97.30;;;;;;5031424;28;20262;-91
2021/12/25 05:39:43;;;;;;;1.17;1.10;;;-2.90;97.30;;;;;;5038416;28;20543;-91
2021/12/25 05:42:08;;;;;;;0.90;0.90;;;-2.90;97.30;;;;;;5038689;28;20492;-90
2021/12/25 05:44:36;;;;;;;1.33;1.23;;;-2.90;97.30;;;;;;5021990;28;20419;-88
2021/12/25 05:47:02;;;;;;;1.20;1.10;;;-2.90;97.30;;;;;;5017953;28;20227;-90
2021/12/25 05:49:27;;;;;;;1.33;1.23;;;-2.80;97.30;;;;;;5017831;28;20486;-90
2021/12/25 05:51:53;;;;;;;1.67;1.20;;;-2.90;97.30;;;;;;5017783;28;20207;-91
2021/12/25 05:54:19;;;;;;;6.30;1.10;;;-2.90;97.30;;;;;;5017439;28;20614;-90
2021/12/25 05:56:45;;;;;;;1.23;1.17;;;-2.90;97.30;;;;;;5018538;28;20239;-91
2021/12/25 05:59:10;;;;;;;1.20;1.10;;;-2.90;97.30;;;;;;5016984;28;20185;-89
2021/12/25 06:01:36;;;;;;;1.10;1.00;;;-2.90;97.30;;;;;;5017444;28;20469;-90
2021/12/25 06:04:03;;;;;;;1.40;1.30;;;-2.90;97.30;;;;;;5034752;28;20180;-89
2021/12/25 06:06:29;;;;;;;1.00;1.00;;;-2.90;97.30;;;;;;5018103;28;20195;-89
2021/12/25 06:08:58;;;;;;;1.40;1.20;;;-2.90;97.30;;;;;;5035843;28;20462;-90
2021/12/25 06:11:24;;;;;;;3.67;1.40;;;-2.90;97.30;;;;;;5018266;28;20424;-89
2021/12/25 06:14:05;;;;;;;1.87;1.07;;;-2.90;97.30;;;;;;5017841;28;20434;-89
2021/12/25 06:16:31;;;;;;;4.53;1.60;;;-2.90;97.30;;;;;;5014603;28;20926;-90
2021/12/25 06:18:56;;;;;;;1.20;1.10;;;-2.90;97.30;;;;;;5017953;28;20419;-90
2021/12/25 06:21:25;;;;;;;1.10;1.00;;;-2.90;97.30;;;;;;5013330;28;20423;-90
2021/12/25 06:23:54;;;;;;;2.07;1.50;;;-2.90;97.30;;;;;;5015425;28;20181;-88
2021/12/25 06:26:20;;;;;;;1.20;1.10;;;-2.90;97.30;;;;;;5016660;28;20426;-89
2021/12/25 06:28:46;;;;;;;2.43;1.50;;;-2.90;97.30;;;;;;5015354;28;20486;-91
2021/12/25 06:31:17;;;;;;;1.77;1.60;;;-2.90;97.30;;;;;;5016077;28;20431;-89
2021/12/25 06:33:59;;;;;;;1.40;1.30;;;-2.90;97.30;;;;;;5016491;28;20415;-89
2021/12/25 06:36:28;;;;;;;1.33;1.27;;;-2.80;97.30;;;;;;5037462;28;20422;-88
2021/12/25 06:38:55;;;;;;;5.03;3.37;;;-2.80;97.30;;;;;;5014490;28;20452;-89
2021/12/25 06:41:30;;;;;;;8.77;3.47;;;-2.70;97.30;;;;;;5014337;28;20479;-89
2021/12/25 06:43:56;;;;;;;1.60;1.40;;;-2.70;97.30;;;;;;5009679;28;20475;-88
2021/12/25 06:46:29;;;;;;;4.60;2.87;;;-2.70;97.30;;;;;;5011987;28;20995;-89
2021/12/25 06:48:58;;;;;;;5.27;2.97;;;-2.80;97.30;;;;;;5010429;28;20459;-89
2021/12/25 06:51:29;;;;;;;2.63;2.20;;;-2.80;97.30;;;;;;5011630;28;20424;-87
2021/12/25 06:53:57;;;;;;;2.10;1.30;;;-2.80;97.30;;;;;;5016655;28;20431;-90
2021/12/25 06:56:47;;;;;;;1.50;1.20;;;-2.80;97.30;;;;;;5014259;28;20504;-89
2021/12/25 06:59:35;;;;;;;3.03;1.40;;;-2.70;97.30;;;;;;5011976;28;20936;-88
2021/12/25 07:05:00;;;;;;;2.70;1.90;;;-2.80;97.30;;;;;;5013380;28;20425;-88
2021/12/25 07:07:38;;;;;;;1.47;1.40;;;-2.80;97.30;;;;;;5014136;28;20973;-89
2021/12/25 07:10:07;;;;;;;2.20;1.60;;;-2.80;97.30;;;;;;5011018;28;21001;-90
2021/12/25 07:12:37;;;;;;;2.17;2.00;;;-2.80;97.30;;;;;;5005554;28;20444;-90
2021/12/25 07:15:07;;;;;;;21.33;7.80;;;-2.70;97.30;;;;;;4998126;28;20461;-87
2021/12/25 07:17:43;;;;;;;7.33;3.00;;;-2.70;97.30;;;;;;5010055;28;20810;-89
2021/12/25 07:20:09;;;;;;;4.87;2.10;;;-2.70;97.30;;;;;;5014363;28;21032;-89
2021/12/25 07:22:37;;;;;;;1.63;1.53;;;-2.70;97.30;;;;;;5009417;28;20538;-88
2021/12/25 07:25:07;;;;;;;2.10;1.60;;;-2.70;97.30;;;;;;5014508;28;20419;-88
2021/12/25 07:27:33;;;;;;;3.23;2.00;;;-2.70;97.30;;;;;;5002762;28;20427;-89
2021/12/25 07:30:07;;;;;;;3.90;1.90;;;-2.80;97.30;;;;;;4994703;28;20493;-89
2021/12/25 07:32:36;;;;;;;1.30;1.20;;;-2.80;97.30;;;;;;5007791;28;20196;-88
2021/12/25 07:35:10;;;;;;;3.77;1.30;;;-2.80;97.30;;;;;;5014129;28;20510;-89
2021/12/25 07:37:38;;;;;;;1.30;1.20;;;-2.80;97.30;;;;;;5014904;28;20487;-88
2021/12/25 07:40:16;;;;;;;2.90;1.60;;;-2.80;97.30;;;;;;5012997;28;20427;-89
2021/12/25 07:42:49;;;;;;;2.30;1.57;;;-2.80;97.30;;;;;;5012913;28;20498;-89
2021/12/25 07:45:18;;;;;;;1.40;1.30;;;-2.80;97.30;;;;;;4993175;28;20471;-88
2021/12/25 07:47:58;;;;;;;1.53;1.30;;;-2.80;97.30;;;;;;5009255;28;20415;-89
2021/12/25 07:50:28;;;;;;;1.83;1.00;;;-2.70;97.30;;;;;;5014412;28;20443;-88
2021/12/25 07:52:58;;;;;;;3.73;1.43;;;-2.70;97.30;;;;;;5014769;28;20435;-89
2021/12/25 07:55:31;;;;;;;1.83;1.73;;;-2.60;97.30;;;;;;5015538;28;20412;-89
2021/12/25 07:58:09;;;;;;;6.77;1.97;;;-2.60;97.30;;;;;;5015038;28;20807;-89
2021/12/25 08:00:35;;;;;;;1.40;1.30;;;-2.60;97.30;;;;;;5012158;28;20877;-89
2021/12/25 08:03:09;;;;;;;1.63;1.53;;;-2.60;97.30;;;;;;5017503;28;20453;-89
2021/12/25 08:05:37;;;;;;;4.83;1.60;;;-2.50;97.30;;;;;;5025795;28;20431;-89
2021/12/25 08:08:03;;;;;;;2.27;1.60;;;-2.50;97.30;;;;;;5034212;28;20518;-89
2021/12/25 08:10:30;;;;;;;1.27;1.20;;;-2.50;97.30;;;;;;5017177;28;20445;-89
2021/12/25 08:12:58;;;;;;;4.33;2.20;;;-2.60;97.30;;;;;;5025265;28;20461;-89
2021/12/25 08:15:26;;;;;;;3.47;2.30;;;-2.60;97.30;;;;;;5013839;28;21036;-89
2021/12/25 08:17:57;;;;;;;3.47;1.50;;;-2.60;97.30;;;;;;5010495;28;20427;-90
2021/12/25 08:20:23;;;;;;;2.70;1.47;;;-2.60;97.30;;;;;;5016465;28;20471;-88
2021/12/25 08:22:49;;;;;;;2.93;2.40;;;-2.60;97.30;;;;;;5030895;28;20434;-90
2021/12/25 08:25:17;;;;;;;1.67;1.57;;;-2.60;97.30;;;;;;5022299;28;20438;-89
2021/12/25 08:27:47;;;;;;;1.50;1.40;;;-2.60;97.30;;;;;;5008096;28;20224;-89
2021/12/25 08:30:17;;;;;;;1.40;1.30;;;-2.70;97.30;;;;;;5035522;28;20432;-89
2021/12/25 08:32:44;;;;;;;1.77;1.60;;;-2.70;97.30;;;;;;5018412;28;20552;-88
2021/12/25 08:35:14;;;;;;;1.23;1.20;;;-2.80;97.30;;;;;;5012918;28;20936;-89
2021/12/25 08:37:40;;;;;;;1.60;1.30;;;-2.80;97.30;;;;;;5006781;28;20510;-90
2021/12/25 08:40:08;;;;;;;1.30;1.20;;;-2.80;97.30;;;;;;5010205;28;20957;-87
2021/12/25 08:42:36;;;;;;;1.53;1.50;;;-2.80;97.30;;;;;;5011902;28;20443;-89
2021/12/25 08:45:19;;;;;;;4.27;1.40;;;-2.70;97.30;;;;;;5009312;28;20438;-88
2021/12/25 08:47:44;;;;;;;2.07;1.73;;;-2.80;97.30;;;;;;5016693;28;20512;-89
2021/12/25 08:50:10;;;;;;;2.33;1.63;;;-2.80;97.30;;;;;;5013410;28;20912;-87
2021/12/25 08:52:36;;;;;;;1.60;1.50;;;-2.80;97.30;;;;;;5012820;28;20563;-89
2021/12/25 08:55:05;;;;;;;2.30;1.60;;;-2.90;97.30;;;;;;5045384;28;20415;-89
2021/12/25 08:57:33;;;;;;;8.70;6.80;;;-2.90;97.30;;;;;;5030066;28;20423;-89
2021/12/25 08:59:59;;;;;;;1.90;1.80;;;-2.90;97.30;;;;;;5013557;28;20419;-87
2021/12/25 09:02:27;;;;;;;2.70;1.70;;;-2.90;97.30;;;;;;5010850;28;20829;-87
2021/12/25 09:04:52;;;;;;;4.73;1.70;;;-3.00;97.30;;;;;;5011610;28;20215;-89
2021/12/25 09:07:19;;;;;;;2.60;2.40;;;-3.00;97.30;;;;;;5029074;28;20917;-88
2021/12/25 09:09:47;;;;;;;2.10;1.70;;;-3.00;97.30;;;;;;5016302;28;20590;-84
2021/12/25 09:12:15;;;;;;;16.43;1.80;;;-3.00;97.30;;;;;;5034497;28;20443;-86
2021/12/25 09:14:48;;;;;;;3.03;1.63;;;-3.00;97.30;;;;;;5037338;28;20419;-87
2021/12/25 09:17:14;;;;;;;1.77;1.43;;;-3.00;97.30;;;;;;5036210;28;20407;-88
2021/12/25 09:19:41;;;;;;;1.97;1.30;;;-3.00;97.30;;;;;;5036553;28;20443;-88
2021/12/25 09:22:09;;;;;;;1.90;1.70;;;-3.00;97.30;;;;;;5023649;28;20438;-87
2021/12/25 09:24:34;;;;;;;1.50;1.40;;;-3.00;97.30;;;;;;5016945;28;20423;-88
2021/12/25 09:27:00;;;;;;;1.67;1.63;;;-3.00;97.30;;;;;;5019376;28;20466;-86
2021/12/25 09:29:26;;;;;;;3.63;1.57;;;-3.10;97.30;;;;;;5019112;28;20242;-87
2021/12/25 09:31:51;;;;;;;4.67;2.07;;;-3.10;97.30;;;;;;5019183;28;20518;-87
2021/12/25 09:34:17;;;;;;;2.30;1.67;;;-3.10;97.30;;;;;;5036885;28;20173;-88
2021/12/25 09:36:43;;;;;;;1.73;1.30;;;-3.20;97.30;;;;;;5019058;28;20187;-88
2021/12/25 09:39:08;;;;;;;1.80;1.37;;;-3.20;97.30;;;;;;5019433;28;20226;-87
2021/12/25 09:41:37;;;;;;;1.63;1.57;;;-3.20;97.30;;;;;;5036177;28;20285;-88
2021/12/25 09:44:06;;;;;;;2.10;1.80;;;-3.20;97.30;;;;;;5018998;28;20205;-89
2021/12/25 09:46:34;;;;;;;3.77;2.13;;;-3.10;97.30;;;;;;5018918;28;20421;-89
2021/12/25 09:49:00;;;;;;;2.27;1.60;;;-3.10;97.30;;;;;;5019221;28;21023;-88
2021/12/25 09:51:26;;;;;;;8.93;1.70;;;-3.00;97.30;;;;;;5017849;28;20434;-88
2021/12/25 09:54:02;;;;;;;2.03;1.63;;;-3.00;97.30;;;;;;5017984;28;20419;-90
2021/12/25 09:56:29;;;;;;;4.43;2.43;;;-2.90;97.30;;;;;;5019033;28;20172;-88
2021/12/25 09:58:54;;;;;;;6.90;3.77;;;-2.90;97.30;;;;;;5019391;28;20415;-88
2021/12/25 10:01:33;;;;;;;22.73;12.10;;;-2.90;97.30;;;;;;5018451;28;20530;-89
2021/12/25 10:04:00;;;;;;;10.57;7.13;;;-2.90;97.30;;;;;;5033823;28;20192;-88
2021/12/25 10:06:37;;;;;;;5.03;3.40;;;-2.90;97.30;;;;;;5016495;28;20419;-89
2021/12/25 10:09:21;;;;;;;6.97;1.70;;;-2.80;97.30;;;;;;5022702;28;20522;-89
2021/12/25 10:11:58;;;;;;;3.20;2.50;;;-2.80;97.30;;;;;;5004526;28;20431;-90
2021/12/25 10:14:25;;;;;;;2.50;1.77;;;-2.60;97.30;;;;;;5021613;28;20433;-89
2021/12/25 10:16:51;;;;;;;2.80;2.47;;;-2.60;97.30;;;;;;5018318;28;20447;-89
2021/12/25 10:19:20;;;;;;;2.13;1.70;;;-2.50;97.30;;;;;;5019757;28;20451;-89
2021/12/25 10:21:46;;;;;;;5.37;2.77;;;-2.50;97.30;;;;;;5018303;28;20807;-88
2021/12/25 10:24:28;;;;;;;1.67;1.60;;;-2.50;97.30;;;;;;5024470;28;20425;-89
2021/12/25 10:27:09;;;;;;;1.87;1.53;;;-2.50;97.30;;;;;;5017491;28;20252;-88
2021/12/25 10:29:37;;;;;;;6.10;1.63;;;-2.50;97.30;;;;;;5015895;28;20507;-88
2021/12/25 10:32:26;;;;;;;1.67;1.60;;;-2.50;97.30;;;;;;5017328;28;20526;-88
2021/12/25 10:34:57;;;;;;;4.40;1.60;;;-2.40;97.30;;;;;;5016961;28;21082;-87
2021/12/25 10:37:39;;;;;;;4.07;1.53;;;-2.40;97.30;;;;;;5016493;28;20497;-88
2021/12/25 10:40:18;;;;;;;3.63;1.87;;;-2.30;97.30;;;;;;5017316;28;20469;-88
2021/12/25 10:42:46;;;;;;;5.20;2.10;;;-2.10;97.30;;;;;;5009343;28;20527;-87
2021/12/25 10:45:17;;;;;;;6.37;2.30;;;-1.90;97.30;;;;;;5034419;28;20480;-87
2021/12/25 10:48:02;;;;;;;3.40;2.00;;;-1.70;97.30;;;;;;5018322;28;20415;-88
2021/12/25 10:50:36;;;;;;;5.90;1.80;;;-1.60;97.30;;;;;;5017940;28;20419;-86
2021/12/25 10:53:20;;;;;;;4.20;1.70;;;-1.50;97.30;;;;;;5035309;28;20429;-89
2021/12/25 10:55:45;;;;;;;8.93;2.03;;;-1.50;97.30;;;;;;5017337;28;20464;-89
2021/12/25 10:58:22;;;;;;;1.67;1.63;;;-1.60;97.30;;;;;;5018148;28;20419;-89
2021/12/25 11:00:54;;;;;;;1.90;1.80;;;-1.70;97.30;;;;;;5017769;28;20180;-88
2021/12/25 11:03:32;;;;;;;1.87;1.73;;;-1.80;97.30;;;;;;5018167;28;20419;-89
2021/12/25 11:06:18;;;;;;;14.37;7.33;;;-1.80;97.30;;;;;;5018098;28;20905;-87
2021/12/25 11:08:45;;;;;;;3.80;2.10;;;-1.70;97.30;;;;;;5017700;28;20454;-88
2021/12/25 11:11:19;;;;;;;2.90;2.70;;;-1.80;97.30;;;;;;5017271;28;20856;-88
2021/12/25 11:13:52;;;;;;;2.10;1.60;;;-1.80;97.30;;;;;;5017936;28;21339;-88
2021/12/25 11:16:28;;;;;;;2.30;2.03;;;-1.80;97.30;;;;;;5017254;28;20407;-89
2021/12/25 11:21:57;;;;;;;2.70;1.27;;;-1.90;97.30;;;;;;5031275;28;20447;-89
2021/12/25 11:24:37;;;;;;;2.70;1.50;;;-1.90;97.30;;;;;;5011529;28;20419;-89
2021/12/25 11:27:06;;;;;;;3.47;1.50;;;-1.90;97.30;;;;;;5017796;28;20941;-89
2021/12/25 11:29:34;;;;;;;2.50;1.40;;;-1.80;97.30;;;;;;5034965;28;20498;-89
2021/12/25 11:32:02;;;;;;;2.13;1.73;;;-1.80;97.30;;;;;;5017041;28;20517;-89
2021/12/25 11:34:29;;;;;;;2.90;1.60;;;-1.90;97.30;;;;;;5017442;28;20992;-89
2021/12/25 11:37:00;;;;;;;1.43;1.07;;;-2.00;97.30;;;;;;5034842;28;20408;-89
2021/12/25 11:39:28;;;;;;;1.83;1.47;;;-2.00;97.30;;;;;;5017289;28;20498;-90
2021/12/25 11:42:00;;;;;;;1.97;1.57;;;-1.90;97.30;;;;;;5017757;28;20443;-90
2021/12/25 11:44:47;;;;;;;2.60;1.33;;;-1.60;97.30;;;;;;5017923;28;20455;-90
2021/12/25 11:47:53;;;;;;;6.30;1.83;;;-1.60;97.30;;;;;;5017394;28;20415;-92
2021/12/25 11:50:21;;;;;;;2.77;1.30;;;-1.70;97.30;;;;;;4957762;28;20426;-91
2021/12/25 11:53:30;;;;;;;3.80;1.50;;;-1.90;97.30;;;;;;5007602;28;20427;-91
2021/12/25 11:58:39;;;;;;;1.70;1.60;;;-2.10;97.30;;;;;;5015501;28;20435;-89
2021/12/25 12:01:20;;;;;;;2.87;2.17;;;-2.10;97.30;;;;;;5014371;28;20799;-92
2021/12/25 12:03:57;;;;;;;1.63;1.60;;;-1.90;97.30;;;;;;5015710;28;20407;-88
2021/12/25 12:06:47;;;;;;;2.03;1.37;;;-1.80;97.30;;;;;;4997545;28;20981;-87
2021/12/25 12:09:14;;;;;;;3.73;2.30;;;-1.60;97.30;;;;;;5005873;28;20450;-89
2021/12/25 12:11:43;;;;;;;5.50;1.80;;;-1.40;97.30;;;;;;5017004;28;20440;-90
2021/12/25 12:14:35;;;;;;;2.53;2.33;;;-1.20;97.30;;;;;;5016838;28;21081;-90
2021/12/25 12:17:26;;;;;;;3.77;2.23;;;-1.00;97.30;;;;;;5017013;28;20894;-90
2021/12/25 12:19:54;;;;;;;3.83;2.60;;;-0.80;97.30;;;;;;5013789;28;20510;-90
2021/12/25 12:22:28;;;;;;;2.80;1.60;;;-0.60;97.30;;;;;;5029315;28;20921;-89
2021/12/25 12:27:59;;;;;;;8.23;2.10;;;-0.50;97.30;;;;;;5039359;28;20584;-90
2021/12/25 12:30:30;;;;;;;4.93;1.80;;;-0.40;97.30;;;;;;5025584;28;20435;-90
2021/12/25 12:32:59;;;;;;;2.00;1.37;;;-0.40;97.30;;;;;;5014223;28;20443;-90
2021/12/25 12:35:30;;;;;;;2.70;1.80;;;-0.50;97.30;;;;;;5016216;28;20408;-89
2021/12/25 12:39:08;;;;;;;;;;;;;;;;;;;;;
2021/12/25 12:41:49;;;;;;;1.63;1.40;;;-1.00;97.30;;;;;;5058445;22;20582;-84
2021/12/25 12:44:24;;;;;;;3.40;1.40;;;-1.20;97.30;;;;;;5075005;28;20439;-85
2021/12/25 12:46:50;;;;;;;2.27;1.60;;;-1.20;97.30;;;;;;5075473;28;20420;-85
2021/12/25 12:49:20;;;;;;;3.17;2.03;;;-1.30;97.30;;;;;;5075415;28;20467;-85
2021/12/25 12:52:08;;;;;;;5.63;1.83;;;-1.30;97.30;;;;;;5088958;28;20214;-85
2021/12/25 12:54:51;;;;;;;2.03;1.70;;;-1.30;97.30;;;;;;5091766;28;20901;-85
2021/12/25 12:57:36;;;;;;;1.90;1.50;;;-1.30;97.30;;;;;;5091668;28;20407;-85
2021/12/25 13:00:27;;;;;;;1.70;1.60;;;-1.20;97.30;;;;;;5091601;28;20460;-85
2021/12/25 13:02:57;;;;;;;3.37;2.50;;;-1.20;97.30;;;;;;5081920;28;20428;-84
2021/12/25 13:05:29;;;;;;;1.73;1.70;;;-1.10;97.30;;;;;;5091627;28;20411;-85
2021/12/25 13:07:56;;;;;;;1.37;1.20;;;-1.00;97.30;;;;;;5091882;28;20451;-85
2021/12/25 13:10:30;;;;;;;3.07;1.40;;;-1.00;97.30;;;;;;5091843;28;20436;-85
2021/12/25 13:13:15;;;;;;;3.30;1.60;;;-1.10;97.30;;;;;;5091507;28;20404;-83
2021/12/25 13:36:08;;;;;;;3.30;2.50;;;0.40;96.00;;;;;;5069543;28;20949;-85
2021/12/25 13:38:57;;;;;;;4.67;2.37;;;0.60;96.00;;;;;;5080095;28;20440;-88
2021/12/25 13:41:34;;;;;;;5.90;2.10;;;1.00;95.00;;;;;;5087838;28;20480;-86
2021/12/25 13:44:15;;;;;;;2.80;2.00;;;1.20;94.00;;;;;;5086942;28;20501;-86
2021/12/25 13:46:49;;;;;;;6.40;2.07;;;1.30;93.40;;;;;;5081490;28;20523;-87
2021/12/25 13:49:33;;;;;;;6.70;2.87;;;1.40;93.10;;;;;;5086734;28;20459;-85
2021/12/25 13:52:06;;;;;;;2.53;1.70;;;1.40;92.60;;;;;;5081959;28;20979;-85
2021/12/25 13:54:33;;;;;;;2.03;1.60;;;1.20;92.30;;;;;;5092475;28;20485;-85
2021/12/25 13:56:59;;;;;;;2.77;1.77;;;0.90;92.90;;;;;;5094127;28;20416;-85
2021/12/25 13:59:26;;;;;;;2.63;2.00;;;0.90;93.40;;;;;;5094590;28;20420;-85
2021/12/25 14:02:13;;;;;;;4.20;1.90;;;1.10;93.40;;;;;;5094048;28;20443;-85
2021/12/25 14:04:41;;;;;;;2.60;1.73;;;1.30;92.90;;;;;;5093923;28;20453;-85
2021/12/25 14:07:08;;;;;;;3.03;1.63;;;1.50;92.50;;;;;;5087186;28;20466;-85
2021/12/25 14:09:33;;;;;;;3.23;1.70;;;1.70;91.60;;;;;;5091847;28;20485;-85
2021/12/25 14:12:00;;;;;;;4.43;1.70;;;1.90;91.30;;;;;;5086509;28;20433;-85
2021/12/25 14:14:28;;;;;;;3.77;1.90;;;2.10;90.70;;;;;;5075085;28;20179;-85
2021/12/25 14:16:54;;;;;;;1.53;1.47;;;2.20;90.40;;;;;;5074113;28;20822;-84
2021/12/25 14:19:25;;;;;;;2.70;1.70;;;2.40;89.90;;;;;;5075441;28;20792;-84
2021/12/25 14:21:53;;;;;;;1.90;1.50;;;2.40;89.50;;;;;;5092688;28;20464;-83
2021/12/25 14:24:19;;;;;;;1.70;1.50;;;2.40;89.20;;;;;;5095376;28;20454;-84
2021/12/25 14:26:45;;;;;;;2.80;1.60;;;2.50;89.00;;;;;;5103517;28;20449;-84
2021/12/25 14:29:22;;;;;;;2.90;1.53;;;2.60;89.00;;;;;;5103652;28;20301;-85
2021/12/25 14:31:48;;;;;;;1.80;1.60;;;2.80;88.90;;;;;;5091459;28;20969;-85
2021/12/25 14:34:14;;;;;;;2.20;1.43;;;2.80;87.80;;;;;;5083061;28;20420;-85
2021/12/25 14:36:42;;;;;;;2.07;1.70;;;2.30;88.20;;;;;;5087778;28;20433;-85
2021/12/25 14:39:13;;;;;;;1.80;1.67;;;1.70;89.00;;;;;;5083159;28;20179;-83
2021/12/25 14:41:39;;;;;;;4.20;2.87;;;1.10;90.20;;;;;;5073512;28;20477;-86
2021/12/25 14:44:23;;;;;;;3.20;1.77;;;0.60;91.40;;;;;;5074036;28;20949;-87
2021/12/25 14:47:04;;;;;;;3.63;1.63;;;0.00;92.80;;;;;;5093117;28;20969;-87
2021/12/25 14:49:45;;;;;;;1.93;1.73;;;-0.40;93.80;;;;;;5095400;28;20456;-83